HEBA

Alexandria/Borg El Arab International Airport

Airport
ICAO code
HEBA
IATA Code
HBE
Summary
ICAO Region
AFI
ICAO Territory
Location

Borg El Arab, Al Iskandariyah

Serving
Alexandria
Elevation
177 ft
Coordinates
30° 55' 4" N , 29° 41' 47" E
KCC
Metar
HEBA 190900Z 25004KT CAVOK 22/13 Q1015 NOSIG

Description

Borg El Arab Airport is an airport serving Alexandria, Egypt. It is located about 40 km southwest of Alexandria, in Borg El Arab. The airport also serves the nearby areas of the Nile Delta.

Climatology

Hot Desert Climate (Köppen climate classification BWh) - Hot desert climates are typically found in the subtropics where there is unbroken sunshine for the whole year due to the stable descending air and high pressure, little or no precipitation. Maximum temperatures of 40°C to 45°C are not uncommon, particularly during the warmer months of the year. During colder periods of the year, night-time temperatures can drop to freezing or below due to the exceptional radiation loss under the clear skies. However, very rarely do temperatures drop far below

Runways

Designator Length Width Surface Rops
14R/32L 411 45 ASP No/No
14S/32S 411 45 ASP No/No
14/32 3400 45 ASP Yes/Yes

Airport map

Aerial View

SKYbrary Partners:

Safety knowledge contributed by: